Ledyard, New York
Current Conditions -  °F | °C
As of 6:56 PM on Wednesday 28 Jan 2015 (Local Time) from KITH Reporting Station
Clear Clear  
Wind Chill: 11°   Ceiling: Unl
Heat Index: 11°   Visibility: 10mi
Dew Point:   Wind: 0mph
Humidity: 76%   Direction: NA
Pressure: 30.27"   Gusts: NA
Location:  42.7483°N, 76.6573°W
Report Text: KITH 282356Z 00000KT 10SM CLR M12/M15 A3027 RMK AO2 51016 T11161150 11055 21116 SLP277
Loading
Personal Weather Stations






























Interactive Weather Map New forecast layout! Learn more

10-Day Weather Forecast

Advertisements
Track Severe Weather on mobile